createdAt,value
2019-05-19T00:00:05.613Z,13.70
2019-05-19T00:02:34.308Z,13.60
2019-05-19T00:05:03.687Z,13.50
2019-05-19T00:07:32.368Z,13.60
2019-05-19T00:10:01.114Z,13.60
2019-05-19T00:12:29.769Z,13.50
2019-05-19T00:14:58.381Z,13.40
2019-05-19T00:17:27.065Z,13.40
2019-05-19T00:19:55.770Z,13.30
2019-05-19T00:22:24.552Z,13.30
2019-05-19T00:24:53.274Z,13.20
2019-05-19T00:27:21.894Z,13.10
2019-05-19T00:29:50.600Z,13.10
2019-05-19T00:32:19.356Z,13.10
2019-05-19T00:34:47.985Z,12.90
2019-05-19T00:37:16.605Z,13.00
2019-05-19T00:39:45.238Z,13.00
2019-05-19T00:42:13.842Z,13.00
2019-05-19T00:44:42.570Z,13.10
2019-05-19T00:47:11.346Z,12.90
2019-05-19T00:49:41.668Z,12.80
2019-05-19T00:52:10.349Z,12.70
2019-05-19T00:54:39.065Z,12.80
2019-05-19T00:57:09.971Z,12.90
2019-05-19T00:59:40.110Z,12.90
2019-05-19T01:02:08.879Z,12.90
2019-05-19T01:04:37.557Z,12.90
2019-05-19T01:07:06.276Z,13.30
2019-05-19T01:09:34.955Z,13.30
2019-05-19T01:12:03.727Z,13.00
2019-05-19T01:14:32.489Z,12.80
2019-05-19T01:17:01.145Z,12.70
2019-05-19T01:19:29.758Z,12.70
2019-05-19T01:22:00.891Z,12.60
2019-05-19T01:24:29.520Z,12.60
2019-05-19T01:26:58.202Z,12.60
2019-05-19T01:29:26.844Z,12.60
2019-05-19T01:31:55.699Z,12.50
2019-05-19T01:34:24.332Z,12.50
2019-05-19T01:36:53.014Z,12.50
2019-05-19T01:39:21.771Z,12.50
2019-05-19T01:41:50.356Z,12.40
2019-05-19T01:44:19.081Z,12.40
2019-05-19T01:46:47.884Z,12.40
2019-05-19T01:49:16.499Z,12.30
2019-05-19T01:51:45.143Z,12.30
2019-05-19T01:54:16.637Z,12.30
2019-05-19T01:56:44.181Z,12.20
2019-05-19T01:59:12.839Z,12.30
2019-05-19T02:01:41.541Z,12.30
2019-05-19T02:04:10.179Z,12.30
2019-05-19T02:06:38.819Z,12.20
2019-05-19T02:09:07.786Z,12.20
2019-05-19T02:11:36.489Z,12.10
2019-05-19T02:14:05.394Z,12.10
2019-05-19T02:16:34.108Z,12.20
2019-05-19T02:19:02.845Z,12.20
2019-05-19T02:21:31.600Z,12.20
2019-05-19T02:24:00.251Z,12.10
2019-05-19T02:26:29.219Z,12.10
2019-05-19T02:28:57.850Z,12.00
2019-05-19T02:31:26.550Z,11.90
2019-05-19T02:33:55.179Z,11.80
2019-05-19T02:36:23.798Z,11.80
2019-05-19T02:38:52.505Z,11.80
2019-05-19T02:41:22.587Z,11.80
2019-05-19T02:43:53.345Z,11.70
2019-05-19T02:46:22.806Z,11.70
2019-05-19T02:48:52.646Z,11.70
2019-05-19T02:51:22.615Z,11.80
2019-05-19T02:53:52.064Z,11.70
2019-05-19T02:56:22.143Z,11.60
2019-05-19T02:58:52.824Z,11.70
2019-05-19T03:01:21.464Z,11.60
2019-05-19T03:03:50.142Z,11.60
2019-05-19T03:06:18.802Z,11.60
2019-05-19T03:08:47.463Z,11.50
2019-05-19T03:11:16.145Z,11.60
2019-05-19T03:13:44.898Z,11.60
2019-05-19T03:16:13.653Z,11.60
2019-05-19T03:18:42.289Z,11.60
2019-05-19T03:21:12.134Z,11.60
2019-05-19T03:23:40.973Z,11.50
2019-05-19T03:26:09.599Z,11.50
2019-05-19T03:28:38.307Z,11.50
2019-05-19T03:31:26.849Z,11.40
2019-05-19T03:33:57.167Z,11.30
2019-05-19T03:36:25.782Z,11.30
2019-05-19T03:38:54.395Z,11.40
2019-05-19T03:41:23.034Z,11.30
2019-05-19T03:43:51.647Z,11.40
2019-05-19T03:46:20.352Z,11.40
2019-05-19T03:48:48.966Z,11.40
2019-05-19T03:51:29.973Z,11.50
2019-05-19T03:53:47.959Z,11.40
2019-05-19T03:56:16.591Z,11.50
2019-05-19T03:58:45.231Z,11.60
2019-05-19T04:01:13.940Z,11.60
2019-05-19T04:03:42.765Z,11.70
2019-05-19T04:06:11.443Z,11.80
2019-05-19T04:08:40.183Z,11.90
2019-05-19T04:11:08.987Z,11.90
2019-05-19T04:13:37.721Z,11.90
2019-05-19T04:16:06.563Z,11.90
2019-05-19T04:18:35.176Z,12.10
2019-05-19T04:21:03.990Z,12.10
2019-05-19T04:23:32.680Z,12.10
2019-05-19T04:26:01.449Z,12.10
2019-05-19T04:28:30.073Z,12.10
2019-05-19T04:30:58.790Z,12.20
2019-05-19T04:33:27.406Z,12.20
2019-05-19T04:35:57.481Z,12.10
2019-05-19T04:38:26.463Z,12.30
2019-05-19T04:40:55.081Z,12.30
2019-05-19T04:43:23.889Z,12.30
2019-05-19T04:45:52.504Z,12.30
2019-05-19T04:48:21.204Z,12.30
2019-05-19T04:50:49.849Z,12.40
2019-05-19T04:53:18.485Z,12.40
2019-05-19T04:55:47.165Z,12.50
2019-05-19T04:58:15.818Z,12.60
2019-05-19T05:00:44.503Z,12.70
2019-05-19T05:03:13.141Z,12.80
2019-05-19T05:05:41.854Z,13.30
2019-05-19T05:08:27.781Z,13.60
2019-05-19T05:10:40.936Z,14.20
2019-05-19T05:13:09.546Z,14.40
2019-05-19T05:15:38.250Z,14.40
2019-05-19T05:18:08.747Z,14.60
2019-05-19T05:20:37.611Z,14.50
2019-05-19T05:23:06.289Z,14.40
2019-05-19T05:25:34.901Z,14.30
2019-05-19T05:28:03.680Z,14.50
2019-05-19T05:30:32.323Z,14.60
2019-05-19T05:33:00.959Z,14.50
2019-05-19T05:35:29.598Z,14.20
2019-05-19T05:37:58.309Z,14.20
2019-05-19T05:40:26.917Z,14.90
2019-05-19T05:42:55.647Z,15.30
2019-05-19T05:45:24.405Z,15.70
2019-05-19T05:47:53.153Z,16.30
2019-05-19T05:50:21.835Z,16.00
2019-05-19T05:52:50.625Z,16.00
2019-05-19T05:55:19.382Z,15.80
2019-05-19T05:57:48.007Z,15.90
2019-05-19T06:00:16.876Z,16.10
2019-05-19T06:02:45.784Z,16.90
2019-05-19T06:05:14.535Z,17.50
2019-05-19T06:07:43.143Z,17.90
2019-05-19T06:10:12.309Z,18.10
2019-05-19T06:12:41.000Z,18.50
2019-05-19T06:15:09.965Z,18.20
2019-05-19T06:17:38.800Z,18.40
2019-05-19T06:20:09.077Z,18.80
2019-05-19T06:22:54.519Z,18.80
2019-05-19T06:25:08.500Z,19.30
2019-05-19T06:27:37.201Z,19.60
2019-05-19T06:30:08.690Z,19.70
2019-05-19T06:32:38.730Z,20.10
2019-05-19T06:35:07.909Z,20.50
2019-05-19T06:37:36.616Z,20.50
2019-05-19T06:40:09.674Z,20.50
2019-05-19T06:42:38.453Z,20.80
2019-05-19T06:45:07.498Z,20.80
2019-05-19T06:47:36.157Z,20.40
2019-05-19T06:50:07.205Z,20.60
2019-05-19T06:52:35.875Z,21.00
2019-05-19T06:55:05.544Z,21.50
2019-05-19T06:57:34.263Z,21.80
2019-05-19T07:00:04.341Z,21.60
2019-05-19T07:02:33.051Z,21.80
2019-05-19T07:05:01.660Z,22.20
2019-05-19T07:07:30.363Z,21.70
2019-05-19T07:09:59.060Z,21.80
2019-05-19T07:12:27.772Z,22.10
2019-05-19T07:14:56.481Z,22.30
2019-05-19T07:17:25.165Z,22.10
2019-05-19T07:19:54.029Z,21.90
2019-05-19T07:22:22.581Z,22.50
2019-05-19T07:24:51.291Z,22.80
2019-05-19T07:27:19.965Z,22.50
2019-05-19T07:29:48.651Z,22.10
2019-05-19T07:32:17.365Z,22.50
2019-05-19T07:34:46.073Z,22.40
2019-05-19T07:37:14.705Z,22.60
2019-05-19T07:39:43.330Z,23.30
2019-05-19T07:42:12.104Z,23.40
2019-05-19T07:44:40.837Z,21.70
2019-05-19T07:47:09.491Z,21.10
2019-05-19T07:49:38.116Z,21.40
2019-05-19T07:52:06.917Z,21.50
2019-05-19T07:54:35.606Z,22.20
2019-05-19T07:57:04.374Z,24.00
2019-05-19T07:59:33.119Z,22.90
2019-05-19T08:02:01.734Z,23.40
2019-05-19T08:04:30.431Z,24.00
2019-05-19T08:06:59.156Z,24.20
2019-05-19T08:09:27.837Z,22.30
2019-05-19T08:11:56.613Z,22.40
2019-05-19T08:14:25.225Z,22.80
2019-05-19T08:16:53.972Z,21.70
2019-05-19T08:19:22.682Z,23.20
2019-05-19T08:21:51.500Z,23.60
2019-05-19T08:24:20.170Z,23.20
2019-05-19T08:26:48.861Z,23.60
2019-05-19T08:29:17.479Z,22.10
2019-05-19T08:31:46.199Z,22.80
2019-05-19T08:34:14.989Z,23.10
2019-05-19T08:36:43.657Z,24.30
2019-05-19T08:39:12.427Z,24.50
2019-05-19T08:41:41.063Z,22.90
2019-05-19T08:44:09.866Z,23.40
2019-05-19T08:46:38.507Z,24.20
2019-05-19T08:49:07.187Z,24.50
2019-05-19T08:51:35.969Z,24.50
2019-05-19T08:54:14.309Z,25.10
2019-05-19T08:56:35.013Z,23.20
2019-05-19T08:59:03.648Z,24.10
2019-05-19T09:01:33.349Z,22.60
2019-05-19T09:04:01.955Z,22.30
2019-05-19T09:06:30.568Z,23.50
2019-05-19T09:08:59.262Z,23.20
2019-05-19T09:11:28.152Z,22.60
2019-05-19T09:13:56.906Z,23.10
2019-05-19T09:16:25.642Z,23.00
2019-05-19T09:18:54.328Z,23.30
2019-05-19T09:21:23.006Z,23.50
2019-05-19T09:23:51.736Z,23.90
2019-05-19T09:26:20.351Z,23.70
2019-05-19T09:28:49.011Z,24.60
2019-05-19T09:31:17.726Z,23.60
2019-05-19T09:33:46.380Z,23.50
2019-05-19T09:36:15.017Z,23.80
2019-05-19T09:38:43.701Z,23.90
2019-05-19T09:41:12.497Z,24.10
2019-05-19T09:43:41.174Z,24.80
2019-05-19T09:46:09.812Z,23.60
2019-05-19T09:48:38.508Z,22.80
2019-05-19T09:51:07.144Z,24.30
2019-05-19T09:53:35.830Z,25.40
2019-05-19T09:56:04.589Z,24.00
2019-05-19T09:58:33.292Z,24.80
2019-05-19T10:01:01.934Z,24.40
2019-05-19T10:03:30.855Z,23.90
2019-05-19T10:05:59.573Z,25.10
2019-05-19T10:08:33.239Z,24.40
2019-05-19T10:11:19.853Z,24.00
2019-05-19T10:13:48.475Z,25.40
2019-05-19T10:16:17.108Z,25.40
2019-05-19T10:18:45.810Z,25.60
2019-05-19T10:21:14.497Z,27.10
2019-05-19T10:23:43.204Z,27.00
2019-05-19T10:26:11.889Z,28.10
2019-05-19T10:28:40.529Z,28.60
2019-05-19T10:31:09.178Z,26.90
2019-05-19T10:33:37.795Z,27.70
2019-05-19T10:36:06.541Z,27.40
2019-05-19T10:38:35.246Z,27.70
2019-05-19T10:41:03.925Z,27.00
2019-05-19T10:43:32.601Z,26.10
2019-05-19T10:46:01.234Z,25.90
2019-05-19T10:48:29.933Z,27.10
2019-05-19T10:50:58.600Z,27.20
2019-05-19T10:53:27.369Z,26.80
2019-05-19T10:55:55.996Z,26.70
2019-05-19T10:58:24.713Z,25.20
2019-05-19T11:00:53.304Z,26.90
2019-05-19T11:03:21.982Z,26.90
2019-05-19T11:05:50.617Z,26.80
2019-05-19T11:08:19.358Z,25.70
2019-05-19T11:10:48.070Z,24.90
2019-05-19T11:13:16.787Z,24.80
2019-05-19T11:15:45.518Z,25.30
2019-05-19T11:18:14.154Z,25.40
2019-05-19T11:20:42.834Z,25.70
2019-05-19T11:23:11.547Z,26.30
2019-05-19T11:25:51.000Z,27.90
2019-05-19T11:28:10.597Z,26.90
2019-05-19T11:30:39.216Z,26.30
2019-05-19T11:33:07.931Z,26.20
2019-05-19T11:35:36.538Z,26.00
2019-05-19T11:38:05.546Z,25.70
2019-05-19T11:40:34.158Z,28.20
2019-05-19T11:43:02.942Z,27.70
2019-05-19T11:45:31.683Z,29.20
2019-05-19T11:48:00.291Z,29.60
2019-05-19T11:50:29.003Z,29.50
2019-05-19T11:52:57.639Z,28.00
2019-05-19T11:55:26.377Z,29.50
2019-05-19T11:57:55.065Z,30.40
2019-05-19T12:00:23.736Z,30.50
2019-05-19T12:02:52.449Z,28.90
2019-05-19T12:05:21.141Z,29.40
2019-05-19T12:07:49.757Z,29.80
2019-05-19T12:10:18.628Z,30.10
2019-05-19T12:12:47.262Z,28.70
2019-05-19T12:15:16.209Z,27.40
2019-05-19T12:17:44.974Z,28.20
2019-05-19T12:20:13.729Z,29.60
2019-05-19T12:22:42.435Z,28.60
2019-05-19T12:25:11.114Z,28.60
2019-05-19T12:27:39.930Z,30.70
2019-05-19T12:30:08.909Z,30.80
2019-05-19T12:32:37.516Z,30.80
2019-05-19T12:35:07.495Z,30.70
2019-05-19T12:37:36.161Z,30.40
2019-05-19T12:40:06.240Z,30.90
2019-05-19T12:42:34.856Z,30.00
2019-05-19T12:45:05.026Z,28.90
2019-05-19T12:47:33.634Z,28.80
2019-05-19T12:50:02.817Z,29.70
2019-05-19T12:52:31.710Z,29.00
2019-05-19T12:55:00.570Z,28.90
2019-05-19T12:57:29.420Z,28.20
2019-05-19T12:59:58.195Z,27.80
2019-05-19T13:02:26.807Z,27.70
2019-05-19T13:05:04.810Z,27.10
2019-05-19T13:07:25.838Z,27.80
2019-05-19T13:09:54.564Z,29.20
2019-05-19T13:12:23.340Z,27.90
2019-05-19T13:14:52.019Z,28.50
2019-05-19T13:17:20.631Z,26.80
2019-05-19T13:19:49.302Z,25.50
2019-05-19T13:22:18.198Z,25.40
2019-05-19T13:24:46.826Z,25.80
2019-05-19T13:27:15.511Z,27.70
2019-05-19T13:29:44.328Z,28.10
2019-05-19T13:32:13.043Z,28.00
2019-05-19T13:34:41.718Z,28.30
2019-05-19T13:37:10.472Z,27.80
2019-05-19T13:39:39.202Z,26.50
2019-05-19T13:42:07.896Z,26.30
2019-05-19T13:44:36.660Z,26.30
2019-05-19T13:47:05.338Z,25.90
2019-05-19T13:49:33.978Z,27.10
2019-05-19T13:52:02.670Z,28.80
2019-05-19T13:54:31.304Z,29.80
2019-05-19T13:57:11.894Z,30.20
2019-05-19T13:59:31.036Z,29.70
2019-05-19T14:02:00.344Z,30.50
2019-05-19T14:04:28.970Z,30.30
2019-05-19T14:06:57.702Z,28.30
2019-05-19T14:09:26.524Z,27.20
2019-05-19T14:11:55.209Z,26.00
2019-05-19T14:14:23.864Z,26.20
2019-05-19T14:16:52.566Z,28.00
2019-05-19T14:19:21.218Z,30.30
2019-05-19T14:26:46.421Z,29.90
2019-05-19T14:29:15.032Z,22.80
2019-05-19T14:31:44.056Z,22.20
2019-05-19T14:34:12.851Z,21.50
2019-05-19T14:36:41.683Z,20.50
2019-05-19T14:39:10.372Z,19.60
2019-05-19T14:41:40.625Z,19.10
2019-05-19T14:44:09.323Z,18.80
2019-05-19T14:46:38.074Z,18.60
2019-05-19T14:49:06.770Z,18.40
2019-05-19T14:51:35.508Z,18.20
2019-05-19T14:54:04.323Z,18.00
2019-05-19T14:56:33.802Z,17.90
2019-05-19T14:59:02.574Z,17.80
2019-05-19T15:01:31.364Z,17.70
2019-05-19T15:04:00.170Z,17.70
2019-05-19T15:06:29.092Z,17.70
2019-05-19T15:08:57.912Z,17.80
2019-05-19T15:11:32.573Z,17.90
2019-05-19T15:14:01.506Z,17.80
2019-05-19T15:16:30.377Z,17.80
2019-05-19T15:18:59.223Z,18.00
2019-05-19T15:21:27.934Z,18.10
2019-05-19T15:23:56.818Z,18.10
2019-05-19T15:26:25.539Z,18.30
2019-05-19T15:28:54.225Z,18.20
2019-05-19T15:31:25.970Z,18.10
2019-05-19T15:33:54.588Z,18.10
2019-05-19T15:36:23.298Z,18.30
2019-05-19T15:39:05.774Z,18.60
2019-05-19T15:41:34.583Z,18.90
2019-05-19T15:44:04.264Z,18.70
2019-05-19T15:46:32.898Z,18.80
2019-05-19T15:49:01.639Z,18.80
2019-05-19T15:51:37.167Z,19.10
2019-05-19T15:54:00.703Z,19.30
2019-05-19T15:56:29.350Z,19.30
2019-05-19T15:58:58.161Z,19.50
2019-05-19T16:01:26.814Z,19.50
2019-05-19T16:03:55.625Z,19.00
2019-05-19T16:06:24.279Z,19.10
2019-05-19T16:08:52.938Z,19.30
2019-05-19T16:11:21.694Z,19.30
2019-05-19T16:13:50.330Z,19.00
2019-05-19T16:16:18.945Z,19.30
2019-05-19T16:18:47.598Z,19.50
2019-05-19T16:21:16.221Z,19.70
2019-05-19T16:23:44.914Z,19.50
2019-05-19T16:26:13.710Z,19.40
2019-05-19T16:28:42.337Z,19.20
2019-05-19T16:31:11.014Z,19.10
2019-05-19T16:33:39.605Z,19.10
2019-05-19T16:36:09.446Z,19.10
2019-05-19T16:38:38.066Z,19.10
2019-05-19T16:41:06.745Z,19.00
2019-05-19T16:43:35.439Z,19.00
2019-05-19T16:46:04.110Z,19.00
2019-05-19T16:48:33.799Z,19.10
2019-05-19T16:51:02.472Z,19.00
2019-05-19T16:53:31.159Z,19.00
2019-05-19T16:55:59.833Z,18.90
2019-05-19T16:58:28.531Z,19.00
2019-05-19T17:00:58.529Z,19.00
2019-05-19T17:03:27.225Z,19.10
2019-05-19T17:05:56.010Z,18.90
2019-05-19T17:08:24.656Z,18.90
2019-05-19T17:10:53.286Z,18.80
2019-05-19T17:13:21.895Z,18.70
2019-05-19T17:15:50.592Z,18.70
2019-05-19T17:18:19.324Z,18.60
2019-05-19T17:20:47.961Z,18.70
2019-05-19T17:23:16.636Z,18.60
2019-05-19T17:25:45.425Z,18.50
2019-05-19T17:28:14.165Z,18.50
2019-05-19T17:30:42.890Z,18.50
2019-05-19T17:33:11.584Z,18.40
2019-05-19T17:35:40.348Z,18.40
2019-05-19T17:38:09.070Z,18.50
2019-05-19T17:40:37.729Z,18.40
2019-05-19T17:43:06.339Z,18.40
2019-05-19T17:45:35.037Z,18.40
2019-05-19T17:48:09.902Z,18.30
2019-05-19T17:50:35.132Z,18.30
2019-05-19T17:53:04.495Z,18.30
2019-05-19T17:55:34.792Z,18.40
2019-05-19T17:58:03.671Z,18.20
2019-05-19T18:00:40.928Z,18.20
2019-05-19T18:03:10.460Z,18.10
2019-05-19T18:05:39.210Z,18.00
2019-05-19T18:08:08.079Z,18.00
2019-05-19T18:10:36.750Z,18.00
2019-05-19T18:13:05.527Z,17.90
2019-05-19T18:15:34.532Z,17.80
2019-05-19T18:18:03.228Z,17.80
2019-05-19T18:20:31.839Z,17.60
2019-05-19T18:23:00.465Z,17.80
2019-05-19T18:25:29.204Z,17.60
2019-05-19T18:27:57.847Z,17.50
2019-05-19T18:30:26.527Z,17.40
2019-05-19T18:32:55.225Z,17.40
2019-05-19T18:35:23.933Z,17.20
2019-05-19T18:37:52.610Z,17.30
2019-05-19T18:40:21.480Z,17.30
2019-05-19T18:42:50.108Z,17.30
2019-05-19T18:45:18.898Z,17.30
2019-05-19T18:47:47.493Z,17.30
2019-05-19T18:50:16.369Z,17.20
2019-05-19T18:52:44.989Z,17.20
2019-05-19T18:55:13.732Z,17.20
2019-05-19T18:57:42.444Z,17.20
2019-05-19T19:00:11.334Z,17.10
2019-05-19T19:02:40.504Z,17.20
2019-05-19T19:05:09.190Z,17.10
2019-05-19T19:07:48.865Z,17.10
2019-05-19T19:10:17.548Z,17.10
2019-05-19T19:12:46.239Z,17.00
2019-05-19T19:15:15.140Z,17.10
2019-05-19T19:17:43.888Z,17.00
2019-05-19T19:20:12.760Z,17.00
2019-05-19T19:22:41.526Z,17.10
2019-05-19T19:25:10.229Z,17.10
2019-05-19T19:27:38.903Z,17.00
2019-05-19T19:30:08.760Z,17.00
2019-05-19T19:32:37.479Z,17.00
2019-05-19T19:35:07.359Z,17.00
2019-05-19T19:37:36.037Z,17.00
2019-05-19T19:40:07.434Z,16.90
2019-05-19T19:42:36.140Z,16.90
2019-05-19T19:45:05.989Z,16.80
2019-05-19T19:47:34.710Z,16.70
2019-05-19T19:50:04.963Z,16.80
2019-05-19T19:52:33.651Z,16.60
2019-05-19T19:55:02.283Z,16.60
2019-05-19T19:57:30.890Z,16.50
2019-05-19T19:59:59.520Z,16.50
2019-05-19T20:02:28.239Z,16.40
2019-05-19T20:04:56.802Z,16.40
2019-05-19T20:07:25.497Z,16.40
2019-05-19T20:09:54.200Z,16.30
2019-05-19T20:12:22.906Z,16.40
2019-05-19T20:14:51.615Z,16.40
2019-05-19T20:17:20.276Z,16.40
2019-05-19T20:19:48.912Z,16.60
2019-05-19T20:22:17.686Z,16.60
2019-05-19T20:24:46.320Z,16.60
2019-05-19T20:27:15.060Z,16.80
2019-05-19T20:29:43.901Z,16.90
2019-05-19T20:32:12.584Z,16.90
2019-05-19T20:34:41.302Z,16.90
2019-05-19T20:37:10.162Z,16.70
2019-05-19T20:39:38.851Z,15.80
2019-05-19T20:42:07.598Z,15.60
2019-05-19T20:44:36.242Z,15.80
2019-05-19T20:47:04.938Z,15.80
2019-05-19T20:49:33.619Z,15.50
2019-05-19T20:52:02.331Z,15.60
2019-05-19T20:54:30.945Z,15.60
2019-05-19T20:56:59.630Z,15.60
2019-05-19T20:59:28.247Z,15.60
2019-05-19T21:01:56.967Z,15.70
2019-05-19T21:04:25.573Z,15.60
2019-05-19T21:06:54.187Z,15.50
2019-05-19T21:09:22.883Z,15.40
2019-05-19T21:11:51.497Z,15.50
2019-05-19T21:14:20.133Z,15.50
2019-05-19T21:16:48.875Z,15.50
2019-05-19T21:19:17.587Z,15.40
2019-05-19T21:21:46.349Z,15.50
2019-05-19T21:24:14.987Z,15.60
2019-05-19T21:26:43.594Z,15.60
2019-05-19T21:29:12.369Z,15.70
2019-05-19T21:31:40.971Z,15.60
2019-05-19T21:34:09.648Z,15.40
2019-05-19T21:36:38.245Z,15.40
2019-05-19T21:39:06.950Z,15.40
2019-05-19T21:41:35.721Z,15.30
2019-05-19T21:44:04.506Z,15.20
2019-05-19T21:46:33.113Z,15.30
2019-05-19T21:49:01.831Z,15.30
2019-05-19T21:51:30.468Z,15.20
2019-05-19T21:53:59.184Z,15.20
2019-05-19T21:56:27.844Z,15.20
2019-05-19T21:58:56.535Z,15.10
2019-05-19T22:01:25.636Z,15.10
2019-05-19T22:03:54.367Z,15.10
2019-05-19T22:06:24.632Z,15.00
2019-05-19T22:08:53.266Z,14.90
2019-05-19T22:11:21.899Z,14.80
2019-05-19T22:13:50.607Z,14.80
2019-05-19T22:16:19.223Z,14.60
2019-05-19T22:18:47.862Z,14.50
2019-05-19T22:21:16.468Z,14.50
2019-05-19T22:23:45.106Z,14.50
2019-05-19T22:26:13.797Z,14.50
2019-05-19T22:28:42.427Z,14.50
2019-05-19T22:31:11.045Z,14.50
2019-05-19T22:33:39.706Z,14.50
2019-05-19T22:36:08.443Z,14.50
2019-05-19T22:38:37.091Z,14.50
2019-05-19T22:41:05.696Z,14.40
2019-05-19T22:43:34.445Z,14.40
2019-05-19T22:46:03.055Z,14.40
2019-05-19T22:48:31.677Z,14.30
2019-05-19T22:51:00.378Z,14.30
2019-05-19T22:53:29.016Z,14.20
2019-05-19T22:55:57.630Z,14.20
2019-05-19T22:58:26.402Z,14.20
2019-05-19T23:00:56.281Z,14.20
2019-05-19T23:03:25.370Z,14.20
2019-05-19T23:05:54.011Z,14.10
2019-05-19T23:08:22.634Z,14.10
2019-05-19T23:10:51.281Z,14.00
2019-05-19T23:13:19.921Z,14.00
2019-05-19T23:15:48.607Z,13.90
2019-05-19T23:18:17.283Z,13.90
2019-05-19T23:20:45.898Z,13.80
2019-05-19T23:23:14.597Z,13.90
2019-05-19T23:25:43.234Z,13.90
2019-05-19T23:28:11.935Z,14.00
2019-05-19T23:30:40.551Z,13.90
2019-05-19T23:33:09.257Z,13.90
2019-05-19T23:35:37.874Z,13.90
2019-05-19T23:38:06.692Z,13.90
2019-05-19T23:40:35.327Z,13.90
2019-05-19T23:43:03.964Z,14.00
2019-05-19T23:45:32.593Z,14.00
2019-05-19T23:48:01.244Z,13.90
2019-05-19T23:50:30.048Z,13.90
2019-05-19T23:52:58.671Z,13.90
2019-05-19T23:55:27.354Z,13.90
2019-05-19T23:57:55.986Z,13.80
